Airfield :
LOGIN :

Register | Disclaimer

   EN    FR    IT 

 










Legend :    VFR   Marginal VFR   IFR   Intensive IFR   Very Intensive IFR
Visi :
Ceiling :
>= 8 km
>= 3000ft
5 to 8 km
1000 to 3000 ft
1500m to 5 km
500 to 1000 ft
800 to 1500m
200 to 500 ft
< 800m
< 200 ft
Symbols :   Thunderstorms  Fog  Heavy snow  Heavy precipitations  Wind > 20 kt
SIGMETs :     Misc.  Thunderstorms  Icing  Turbulence  Mountain Waves  Volcanic Ashes







- Airport Elevation : 545 ft
- IATA code : PZY


LZPP - Piešťany

CURRENT METAR :
  • 221430Z 25003KT 190V330 9999 SCT045 17/07 Q1021

EXPIRED METARs :
  • 221400Z 25003KT 210V290 9999 SCT045 17/08 Q1021
  • 221330Z 30006KT 260V340 9999 SCT040 18/08 Q1021
  • 221300Z 29007KT 220V360 9999 SCT040 17/08 Q1021
  • 221230Z 31009KT 9999 SCT040 17/09 Q1021
  • 221200Z 30010KT 270V340 9999 SCT040 17/08 Q1021

TAF TAF LZPP
Valid from the 22 at 15:00 until the 23 at 00:00 UTC


221400Z 2215/2300 31005KT 9999 SCT040 BKN100
BECMG 2218/2220 VRB02KT CAVOK
No reported NOTAMs for that airfield.



MET'MAP, your aeronautical weather chart ! - Copyright ORBIFLY December 2007 - Disclaimer

ORBIFLY MET'MAP TEAM :

Programming & Development : Alexandra Zaïnal
Concept & Development : Baudouin d'Aumeries
Co-Development & Prog : Marc-Olivier Méhu
Technical & hardware support : Manuel Goepfert

Contact : metmap@orbifly.com




SOURCES & CREDITS :

   NOAA